Terminal Aerodrome Forecast
Issued by NWS

Home | Current Version | Previous Version | Text Only | Print | Product List | Glossary Off
Versions: 1 2 3 4 5 6 7 8 9 10 11 12 13 14 15 16 17

000
FTUS41 KCLE 262300
TAFFDY
TAF
KFDY 262335Z 2700/2724 02006KT P6SM SCT018 OVC025
      TEMPO 2700/2703 BKN018
     FM271000 32008KT P6SM OVC025=

USA.gov is the U.S. government's official web portal to all federal, state and local government web resources and services.